sensor_id;sensor_type;location;lat;lon;timestamp;pressure;altitude;pressure_sealevel;temperature;humidity
71573;BME280;59408;51.032;9.410;2022-12-07T00:01:26;99024.66;;;0.48;100.00
71573;BME280;59408;51.032;9.410;2022-12-07T00:03:54;99016.88;;;0.46;100.00
71573;BME280;59408;51.032;9.410;2022-12-07T00:06:21;99012.59;;;0.45;100.00
71573;BME280;59408;51.032;9.410;2022-12-07T00:08:48;99011.00;;;0.44;100.00
71573;BME280;59408;51.032;9.410;2022-12-07T00:11:16;99004.25;;;0.47;100.00
71573;BME280;59408;51.032;9.410;2022-12-07T00:13:44;98998.38;;;0.45;100.00
71573;BME280;59408;51.032;9.410;2022-12-07T00:16:13;98999.19;;;0.45;100.00
71573;BME280;59408;51.032;9.410;2022-12-07T00:18:41;98993.53;;;0.47;100.00
71573;BME280;59408;51.032;9.410;2022-12-07T00:21:10;98991.66;;;0.47;100.00
71573;BME280;59408;51.032;9.410;2022-12-07T00:23:37;98992.44;;;0.48;100.00
71573;BME280;59408;51.032;9.410;2022-12-07T00:26:05;98984.94;;;0.50;100.00
71573;BME280;59408;51.032;9.410;2022-12-07T00:28:33;98986.56;;;0.51;100.00
71573;BME280;59408;51.032;9.410;2022-12-07T00:31:01;98988.97;;;0.53;100.00
71573;BME280;59408;51.032;9.410;2022-12-07T00:33:29;98989.78;;;0.53;100.00
71573;BME280;59408;51.032;9.410;2022-12-07T00:35:56;98981.44;;;0.55;100.00
71573;BME280;59408;51.032;9.410;2022-12-07T00:38:23;98984.63;;;0.57;100.00
71573;BME280;59408;51.032;9.410;2022-12-07T00:40:54;98988.13;;;0.57;100.00
71573;BME280;59408;51.032;9.410;2022-12-07T00:43:21;98970.41;;;0.56;100.00
71573;BME280;59408;51.032;9.410;2022-12-07T00:45:48;98975.25;;;0.59;100.00
71573;BME280;59408;51.032;9.410;2022-12-07T00:48:14;98969.34;;;0.62;100.00
71573;BME280;59408;51.032;9.410;2022-12-07T00:50:42;98974.13;;;0.65;100.00
71573;BME280;59408;51.032;9.410;2022-12-07T00:53:09;98971.72;;;0.69;100.00
71573;BME280;59408;51.032;9.410;2022-12-07T00:55:36;98962.06;;;0.68;100.00
71573;BME280;59408;51.032;9.410;2022-12-07T00:58:03;98966.34;;;0.69;100.00
71573;BME280;59408;51.032;9.410;2022-12-07T01:00:30;98960.16;;;0.68;100.00
71573;BME280;59408;51.032;9.410;2022-12-07T01:02:56;98960.97;;;0.69;100.00
71573;BME280;59408;51.032;9.410;2022-12-07T01:05:23;98961.25;;;0.67;100.00
71573;BME280;59408;51.032;9.410;2022-12-07T01:07:51;98957.22;;;0.65;100.00
71573;BME280;59408;51.032;9.410;2022-12-07T01:10:18;98957.22;;;0.65;100.00
71573;BME280;59408;51.032;9.410;2022-12-07T01:12:45;98956.16;;;0.66;100.00
71573;BME280;59408;51.032;9.410;2022-12-07T01:15:11;98948.63;;;0.68;100.00
71573;BME280;59408;51.032;9.410;2022-12-07T01:17:38;98942.44;;;0.72;100.00
71573;BME280;59408;51.032;9.410;2022-12-07T01:20:05;98935.47;;;0.71;100.00
71573;BME280;59408;51.032;9.410;2022-12-07T01:22:36;98932.47;;;0.78;100.00
71573;BME280;59408;51.032;9.410;2022-12-07T01:25:06;98930.06;;;0.76;100.00
71573;BME280;59408;51.032;9.410;2022-12-07T01:27:33;98936.78;;;0.74;100.00
71573;BME280;59408;51.032;9.410;2022-12-07T01:30:00;98931.94;;;0.76;100.00
71573;BME280;59408;51.032;9.410;2022-12-07T01:32:28;98934.91;;;0.74;100.00
71573;BME280;59408;51.032;9.410;2022-12-07T01:34:55;98932.53;;;0.73;100.00
71573;BME280;59408;51.032;9.410;2022-12-07T01:37:21;98939.47;;;0.74;100.00
71573;BME280;59408;51.032;9.410;2022-12-07T01:39:48;98936.25;;;0.77;100.00
71573;BME280;59408;51.032;9.410;2022-12-07T01:42:16;98944.03;;;0.73;100.00
71573;BME280;59408;51.032;9.410;2022-12-07T01:47:53;98937.03;;;0.77;100.00
71573;BME280;59408;51.032;9.410;2022-12-07T01:50:25;98939.19;;;0.75;100.00
71573;BME280;59408;51.032;9.410;2022-12-07T01:52:54;98949.38;;;0.78;100.00
71573;BME280;59408;51.032;9.410;2022-12-07T01:55:22;98954.47;;;0.80;100.00
71573;BME280;59408;51.032;9.410;2022-12-07T01:57:52;98956.38;;;0.79;100.00
71573;BME280;59408;51.032;9.410;2022-12-07T02:00:20;98948.53;;;0.83;100.00
71573;BME280;59408;51.032;9.410;2022-12-07T02:02:48;98941.59;;;0.82;100.00
71573;BME280;59408;51.032;9.410;2022-12-07T02:05:18;98946.97;;;0.82;100.00
71573;BME280;59408;51.032;9.410;2022-12-07T02:07:47;98936.72;;;0.84;100.00
71573;BME280;59408;51.032;9.410;2022-12-07T02:10:15;98938.38;;;0.80;100.00
71573;BME280;59408;51.032;9.410;2022-12-07T02:12:43;98933.56;;;0.77;100.00
71573;BME280;59408;51.032;9.410;2022-12-07T02:15:12;98929.00;;;0.77;100.00
71573;BME280;59408;51.032;9.410;2022-12-07T02:17:45;98933.56;;;0.77;100.00
71573;BME280;59408;51.032;9.410;2022-12-07T02:20:23;98926.31;;;0.77;100.00
71573;BME280;59408;51.032;9.410;2022-12-07T02:23:14;98934.63;;;0.76;100.00
71573;BME280;59408;51.032;9.410;2022-12-07T02:28:51;98923.09;;;0.75;100.00
71573;BME280;59408;51.032;9.410;2022-12-07T02:31:23;98928.72;;;0.74;100.00
71573;BME280;59408;51.032;9.410;2022-12-07T02:33:55;98926.84;;;0.74;100.00
71573;BME280;59408;51.032;9.410;2022-12-07T02:36:27;98921.47;;;0.74;100.00
71573;BME280;59408;51.032;9.410;2022-12-07T02:38:58;98924.16;;;0.74;100.00
71573;BME280;59408;51.032;9.410;2022-12-07T02:41:29;98919.88;;;0.73;100.00
71573;BME280;59408;51.032;9.410;2022-12-07T02:44:01;98914.81;;;0.72;100.00
71573;BME280;59408;51.032;9.410;2022-12-07T02:46:31;98916.13;;;0.74;100.00
71573;BME280;59408;51.032;9.410;2022-12-07T02:48:59;98914.50;;;0.73;100.00
71573;BME280;59408;51.032;9.410;2022-12-07T02:51:29;98908.63;;;0.71;100.00
71573;BME280;59408;51.032;9.410;2022-12-07T02:53:57;98907.56;;;0.72;100.00
71573;BME280;59408;51.032;9.410;2022-12-07T02:56:27;98914.22;;;0.75;100.00
71573;BME280;59408;51.032;9.410;2022-12-07T02:59:07;98906.72;;;0.77;100.00
71573;BME280;59408;51.032;9.410;2022-12-07T03:01:44;98910.72;;;0.79;100.00
71573;BME280;59408;51.032;9.410;2022-12-07T03:04:24;98913.41;;;0.79;100.00
71573;BME280;59408;51.032;9.410;2022-12-07T03:07:00;98908.84;;;0.80;100.00
71573;BME280;59408;51.032;9.410;2022-12-07T03:09:33;98910.47;;;0.81;100.00
71573;BME280;59408;51.032;9.410;2022-12-07T03:12:07;98901.31;;;0.82;100.00
71573;BME280;59408;51.032;9.410;2022-12-07T03:14:41;98907.78;;;0.81;100.00
71573;BME280;59408;51.032;9.410;2022-12-07T03:17:12;98904.78;;;0.82;100.00
71573;BME280;59408;51.032;9.410;2022-12-07T03:19:41;98900.53;;;0.81;100.00
71573;BME280;59408;51.032;9.410;2022-12-07T03:22:11;98902.09;;;0.82;100.00
71573;BME280;59408;51.032;9.410;2022-12-07T03:24:40;98894.03;;;0.82;100.00
71573;BME280;59408;51.032;9.410;2022-12-07T03:27:13;98893.78;;;0.84;100.00
71573;BME280;59408;51.032;9.410;2022-12-07T03:29:46;98892.41;;;0.86;100.00
71573;BME280;59408;51.032;9.410;2022-12-07T03:32:20;98892.16;;;0.88;100.00
71573;BME280;59408;51.032;9.410;2022-12-07T03:34:53;98884.38;;;0.86;100.00
71573;BME280;59408;51.032;9.410;2022-12-07T03:37:27;98888.91;;;0.91;100.00
71573;BME280;59408;51.032;9.410;2022-12-07T03:40:02;98886.72;;;0.93;100.00
71573;BME280;59408;51.032;9.410;2022-12-07T03:42:30;98885.38;;;0.96;100.00
71573;BME280;59408;51.032;9.410;2022-12-07T03:45:01;98885.38;;;0.96;100.00
71573;BME280;59408;51.032;9.410;2022-12-07T03:47:31;98880.81;;;0.96;100.00
71573;BME280;59408;51.032;9.410;2022-12-07T03:50:06;98880.81;;;0.96;100.00
71573;BME280;59408;51.032;9.410;2022-12-07T03:52:38;98887.53;;;0.94;100.00
71573;BME280;59408;51.032;9.410;2022-12-07T03:55:08;98886.47;;;0.95;100.00
71573;BME280;59408;51.032;9.410;2022-12-07T03:57:38;98891.56;;;0.96;100.00
71573;BME280;59408;51.032;9.410;2022-12-07T04:00:10;98894.25;;;0.96;100.00
71573;BME280;59408;51.032;9.410;2022-12-07T04:02:37;98888.34;;;0.94;100.00
71573;BME280;59408;51.032;9.410;2022-12-07T04:05:06;98899.06;;;0.94;100.00
71573;BME280;59408;51.032;9.410;2022-12-07T04:07:33;98893.97;;;0.93;100.00
71573;BME280;59408;51.032;9.410;2022-12-07T04:10:00;98897.75;;;0.92;100.00
71573;BME280;59408;51.032;9.410;2022-12-07T04:12:26;98892.91;;;0.94;100.00
71573;BME280;59408;51.032;9.410;2022-12-07T04:14:53;98890.78;;;0.91;100.00
71573;BME280;59408;51.032;9.410;2022-12-07T04:17:21;98894.56;;;0.90;100.00
71573;BME280;59408;51.032;9.410;2022-12-07T04:19:48;98885.97;;;0.87;100.00
71573;BME280;59408;51.032;9.410;2022-12-07T04:22:14;98895.63;;;0.88;100.00
71573;BME280;59408;51.032;9.410;2022-12-07T04:24:41;98885.97;;;0.87;100.00
71573;BME280;59408;51.032;9.410;2022-12-07T04:27:08;98888.41;;;0.84;100.00
71573;BME280;59408;51.032;9.410;2022-12-07T04:29:34;98883.03;;;0.84;100.00
71573;BME280;59408;51.032;9.410;2022-12-07T04:32:01;98880.34;;;0.84;100.00
71573;BME280;59408;51.032;9.410;2022-12-07T04:34:29;98879.28;;;0.85;100.00
71573;BME280;59408;51.032;9.410;2022-12-07T04:36:55;98882.75;;;0.85;100.00
71573;BME280;59408;51.032;9.410;2022-12-07T04:39:24;98884.63;;;0.85;100.00
71573;BME280;59408;51.032;9.410;2022-12-07T04:41:52;98884.63;;;0.85;100.00
71573;BME280;59408;51.032;9.410;2022-12-07T04:44:19;98887.84;;;0.87;100.00
71573;BME280;59408;51.032;9.410;2022-12-07T04:46:46;98889.19;;;0.90;100.00
71573;BME280;59408;51.032;9.410;2022-12-07T04:49:14;98888.38;;;0.89;100.00
71573;BME280;59408;51.032;9.410;2022-12-07T04:51:43;98891.59;;;0.91;100.00
71573;BME280;59408;51.032;9.410;2022-12-07T04:54:10;98893.75;;;0.89;100.00
71573;BME280;59408;51.032;9.410;2022-12-07T04:56:38;98897.47;;;0.93;100.00
71573;BME280;59408;51.032;9.410;2022-12-07T04:59:04;98891.81;;;0.95;100.00
71573;BME280;59408;51.032;9.410;2022-12-07T05:01:32;98893.97;;;0.93;100.00
71573;BME280;59408;51.032;9.410;2022-12-07T05:03:58;98893.47;;;0.91;100.00
71573;BME280;59408;51.032;9.410;2022-12-07T05:06:25;98893.19;;;0.92;100.00
71573;BME280;59408;51.032;9.410;2022-12-07T05:08:53;98895.06;;;0.92;100.00
71573;BME280;59408;51.032;9.410;2022-12-07T05:11:20;98889.19;;;0.90;100.00
71573;BME280;59408;51.032;9.410;2022-12-07T05:13:47;98900.44;;;0.92;100.00
71573;BME280;59408;51.032;9.410;2022-12-07T05:16:13;98899.34;;;0.93;100.00
71573;BME280;59408;51.032;9.410;2022-12-07T05:18:40;98894.50;;;0.95;100.00
71573;BME280;59408;51.032;9.410;2022-12-07T05:21:06;98899.88;;;0.95;100.00
71573;BME280;59408;51.032;9.410;2022-12-07T05:23:33;98893.19;;;0.92;100.00
71573;BME280;59408;51.032;9.410;2022-12-07T05:26:01;98897.19;;;0.95;100.00
71573;BME280;59408;51.032;9.410;2022-12-07T05:28:28;98891.03;;;0.94;100.00
71573;BME280;59408;51.032;9.410;2022-12-07T05:30:54;98889.69;;;0.92;100.00
71573;BME280;59408;51.032;9.410;2022-12-07T05:33:25;98880.34;;;0.89;100.00
71573;BME280;59408;51.032;9.410;2022-12-07T05:35:52;98890.00;;;0.90;100.00
71573;BME280;59408;51.032;9.410;2022-12-07T05:38:18;98897.53;;;0.88;100.00
71573;BME280;59408;51.032;9.410;2022-12-07T05:40:45;98887.59;;;0.88;100.00
71573;BME280;59408;51.032;9.410;2022-12-07T05:43:13;98889.47;;;0.88;100.00
71573;BME280;59408;51.032;9.410;2022-12-07T05:45:40;98894.03;;;0.87;100.00
71573;BME280;59408;51.032;9.410;2022-12-07T05:48:06;98892.16;;;0.88;100.00
71573;BME280;59408;51.032;9.410;2022-12-07T05:50:33;98898.03;;;0.90;100.00
71573;BME280;59408;51.032;9.410;2022-12-07T05:53:00;98887.81;;;0.92;100.00
71573;BME280;59408;51.032;9.410;2022-12-07T05:55:26;98881.13;;;0.90;100.00
71573;BME280;59408;51.032;9.410;2022-12-07T05:57:53;98883.84;;;0.84;100.00
71573;BME280;59408;51.032;9.410;2022-12-07T06:00:21;98877.16;;;0.82;100.00
71573;BME280;59408;51.032;9.410;2022-12-07T06:02:48;98882.81;;;0.80;100.00
71573;BME280;59408;51.032;9.410;2022-12-07T06:05:15;98879.53;;;0.83;100.00
71573;BME280;59408;51.032;9.410;2022-12-07T06:07:42;98877.66;;;0.84;100.00
71573;BME280;59408;51.032;9.410;2022-12-07T06:10:09;98882.75;;;0.85;100.00
71573;BME280;59408;51.032;9.410;2022-12-07T06:12:36;98881.41;;;0.88;100.00
71573;BME280;59408;51.032;9.410;2022-12-07T06:15:03;98877.38;;;0.85;100.00
71573;BME280;59408;51.032;9.410;2022-12-07T06:17:31;98877.38;;;0.85;100.00
71573;BME280;59408;51.032;9.410;2022-12-07T06:19:58;98871.50;;;0.83;100.00
71573;BME280;59408;51.032;9.410;2022-12-07T06:22:25;98878.19;;;0.86;100.00
71573;BME280;59408;51.032;9.410;2022-12-07T06:24:52;98878.47;;;0.84;100.00
71573;BME280;59408;51.032;9.410;2022-12-07T06:27:19;98867.50;;;0.81;100.00
71573;BME280;59408;51.032;9.410;2022-12-07T06:29:45;98873.69;;;0.81;100.00
71573;BME280;59408;51.032;9.410;2022-12-07T06:32:12;98875.56;;;0.76;100.00
71573;BME280;59408;51.032;9.410;2022-12-07T06:34:40;98871.84;;;0.72;100.00
71573;BME280;59408;51.032;9.410;2022-12-07T06:37:07;98879.91;;;0.72;100.00
71573;BME280;59408;51.032;9.410;2022-12-07T06:39:34;98876.69;;;0.70;100.00
71573;BME280;59408;51.032;9.410;2022-12-07T06:42:00;98881.53;;;0.68;100.00
71573;BME280;59408;51.032;9.410;2022-12-07T06:44:27;98880.72;;;0.67;100.00
71573;BME280;59408;51.032;9.410;2022-12-07T06:46:53;98881.25;;;0.69;100.00
71573;BME280;59408;51.032;9.410;2022-12-07T06:49:41;98882.59;;;0.67;100.00
71573;BME280;59408;51.032;9.410;2022-12-07T06:52:08;98885.81;;;0.69;100.00
71573;BME280;59408;51.032;9.410;2022-12-07T06:54:34;98888.25;;;0.70;100.00
71573;BME280;59408;51.032;9.410;2022-12-07T06:57:01;98888.25;;;0.70;100.00
71573;BME280;59408;51.032;9.410;2022-12-07T06:59:28;98893.88;;;0.69;100.00
71573;BME280;59408;51.032;9.410;2022-12-07T07:01:54;98894.41;;;0.71;100.00
71573;BME280;59408;51.032;9.410;2022-12-07T07:04:21;98897.38;;;0.69;100.00
71573;BME280;59408;51.032;9.410;2022-12-07T07:06:49;98902.72;;;0.69;100.00
71573;BME280;59408;51.032;9.410;2022-12-07T07:09:22;98912.41;;;0.70;100.00
71573;BME280;59408;51.032;9.410;2022-12-07T07:11:48;98900.84;;;0.70;100.00
71573;BME280;59408;51.032;9.410;2022-12-07T07:14:15;98904.88;;;0.67;100.00
71573;BME280;59408;51.032;9.410;2022-12-07T07:16:42;98908.66;;;0.66;100.00
71573;BME280;59408;51.032;9.410;2022-12-07T07:19:08;98920.44;;;0.70;100.00
71573;BME280;59408;51.032;9.410;2022-12-07T07:21:36;98914.28;;;0.70;100.00
71573;BME280;59408;51.032;9.410;2022-12-07T07:24:04;98909.72;;;0.70;100.00
71573;BME280;59408;51.032;9.410;2022-12-07T07:26:31;98915.88;;;0.71;100.00
71573;BME280;59408;51.032;9.410;2022-12-07T07:28:57;98914.81;;;0.72;100.00
71573;BME280;59408;51.032;9.410;2022-12-07T07:31:24;98910.50;;;0.71;100.00
71573;BME280;59408;51.032;9.410;2022-12-07T07:33:51;98916.69;;;0.71;100.00
71573;BME280;59408;51.032;9.410;2022-12-07T07:36:18;98916.69;;;0.71;100.00
71573;BME280;59408;51.032;9.410;2022-12-07T07:38:44;98914.28;;;0.70;100.00
71573;BME280;59408;51.032;9.410;2022-12-07T07:41:12;98912.94;;;0.67;100.00
71573;BME280;59408;51.032;9.410;2022-12-07T07:43:39;98916.69;;;0.66;100.00
71573;BME280;59408;51.032;9.410;2022-12-07T07:46:05;98911.91;;;0.63;100.00
71573;BME280;59408;51.032;9.410;2022-12-07T07:48:32;98907.03;;;0.65;100.00
71573;BME280;59408;51.032;9.410;2022-12-07T07:50:59;98920.47;;;0.65;100.00
71573;BME280;59408;51.032;9.410;2022-12-07T07:53:26;98914.53;;;0.68;100.00
71573;BME280;59408;51.032;9.410;2022-12-07T07:55:53;98921.00;;;0.67;100.00
71573;BME280;59408;51.032;9.410;2022-12-07T07:58:21;98919.91;;;0.68;100.00
71573;BME280;59408;51.032;9.410;2022-12-07T08:00:48;98918.03;;;0.69;100.00
71573;BME280;59408;51.032;9.410;2022-12-07T08:03:14;98910.25;;;0.67;100.00
71573;BME280;59408;51.032;9.410;2022-12-07T08:05:41;98918.31;;;0.67;100.00
71573;BME280;59408;51.032;9.410;2022-12-07T08:08:08;98917.78;;;0.65;100.00
71573;BME280;59408;51.032;9.410;2022-12-07T08:10:34;98919.09;;;0.68;100.00
71573;BME280;59408;51.032;9.410;2022-12-07T08:13:01;98918.03;;;0.69;100.00
71573;BME280;59408;51.032;9.410;2022-12-07T08:15:30;98915.88;;;0.71;100.00
71573;BME280;59408;51.032;9.410;2022-12-07T08:17:57;98918.28;;;0.72;100.00
71573;BME280;59408;51.032;9.410;2022-12-07T08:20:24;98922.00;;;0.76;100.00
71573;BME280;59408;51.032;9.410;2022-12-07T08:22:51;98913.69;;;0.78;100.00
71573;BME280;59408;51.032;9.410;2022-12-07T08:25:18;98918.25;;;0.77;100.00
71573;BME280;59408;51.032;9.410;2022-12-07T08:27:44;98918.25;;;0.77;100.00
71573;BME280;59408;51.032;9.410;2022-12-07T08:30:11;98919.84;;;0.78;100.00
71573;BME280;59408;51.032;9.410;2022-12-07T08:32:39;98921.19;;;0.81;100.00
71573;BME280;59408;51.032;9.410;2022-12-07T08:35:06;98922.22;;;0.85;100.00
71573;BME280;59408;51.032;9.410;2022-12-07T08:37:33;98925.16;;;0.88;100.00
71573;BME280;59408;51.032;9.410;2022-12-07T08:40:00;98920.56;;;0.94;100.00
71573;BME280;59408;51.032;9.410;2022-12-07T08:42:27;98918.94;;;0.93;100.00
71573;BME280;59408;51.032;9.410;2022-12-07T08:44:54;98921.34;;;0.95;100.00
71573;BME280;59408;51.032;9.410;2022-12-07T08:47:20;98928.63;;;0.94;100.00
71573;BME280;59408;51.032;9.410;2022-12-07T08:49:49;98923.81;;;0.91;100.00
71573;BME280;59408;51.032;9.410;2022-12-07T08:52:17;98930.75;;;0.92;100.00
71573;BME280;59408;51.032;9.410;2022-12-07T08:54:44;98931.03;;;0.96;100.00
71573;BME280;59408;51.032;9.410;2022-12-07T08:57:11;98941.72;;;1.01;100.00
71573;BME280;59408;51.032;9.410;2022-12-07T08:59:38;98932.03;;;1.05;100.00
71573;BME280;59408;51.032;9.410;2022-12-07T09:02:05;98932.28;;;1.08;100.00
71573;BME280;59408;51.032;9.410;2022-12-07T09:04:32;98933.31;;;1.12;100.00
71573;BME280;59408;51.032;9.410;2022-12-07T09:07:00;98930.91;;;1.16;100.00
71573;BME280;59408;51.032;9.410;2022-12-07T09:09:27;98935.19;;;1.17;100.00
71573;BME280;59408;51.032;9.410;2022-12-07T09:11:54;98939.97;;;1.25;100.00
71573;BME280;59408;51.032;9.410;2022-12-07T09:14:21;98934.78;;;1.34;100.00
71573;BME280;59408;51.032;9.410;2022-12-07T09:16:48;98936.63;;;1.38;100.00
71573;BME280;59408;51.032;9.410;2022-12-07T09:19:14;98939.84;;;1.40;100.00
71573;BME280;59408;51.032;9.410;2022-12-07T09:21:41;98940.63;;;1.41;100.00
71573;BME280;59408;51.032;9.410;2022-12-07T09:24:09;98941.69;;;1.45;100.00
71573;BME280;59408;51.032;9.410;2022-12-07T09:26:35;98930.38;;;1.48;100.00
71573;BME280;59408;51.032;9.410;2022-12-07T09:29:02;98939.16;;;1.58;100.00
71573;BME280;59408;51.032;9.410;2022-12-07T09:31:29;98937.44;;;1.68;100.00
71573;BME280;59408;51.032;9.410;2022-12-07T09:33:56;98935.50;;;1.73;100.00
71573;BME280;59408;51.032;9.410;2022-12-07T09:36:24;98930.84;;;1.84;100.00
71573;BME280;59408;51.032;9.410;2022-12-07T09:38:51;98941.03;;;1.87;100.00
71573;BME280;59408;51.032;9.410;2022-12-07T09:41:19;98942.31;;;1.94;100.00
71573;BME280;59408;51.032;9.410;2022-12-07T09:43:46;98940.41;;;1.95;100.00
71573;BME280;59408;51.032;9.410;2022-12-07T09:46:15;98940.94;;;1.97;100.00
71573;BME280;59408;51.032;9.410;2022-12-07T09:48:43;98939.63;;;1.94;100.00
71573;BME280;59408;51.032;9.410;2022-12-07T09:51:15;98935.09;;;1.90;100.00
71573;BME280;59408;51.032;9.410;2022-12-07T09:53:49;98939.88;;;1.93;100.00
71573;BME280;59408;51.032;9.410;2022-12-07T09:56:19;98941.78;;;1.92;100.00
71573;BME280;59408;51.032;9.410;2022-12-07T09:58:47;98930.28;;;1.87;100.00
71573;BME280;59408;51.032;9.410;2022-12-07T10:01:16;98935.41;;;1.83;100.00
71573;BME280;59408;51.032;9.410;2022-12-07T10:03:49;98927.13;;;1.80;100.00
71573;BME280;59408;51.032;9.410;2022-12-07T10:06:16;98932.53;;;1.75;100.00
71573;BME280;59408;51.032;9.410;2022-12-07T10:08:43;98922.38;;;1.72;100.00
71573;BME280;59408;51.032;9.410;2022-12-07T10:11:10;98925.88;;;1.72;100.00
71573;BME280;59408;51.032;9.410;2022-12-07T10:13:40;98927.44;;;1.73;100.00
71573;BME280;59408;51.032;9.410;2022-12-07T10:16:35;98922.13;;;1.68;100.00
71573;BME280;59408;51.032;9.410;2022-12-07T10:19:20;98909.94;;;1.76;100.00
71573;BME280;59408;51.032;9.410;2022-12-07T10:22:07;98910.13;;;1.84;100.00
71573;BME280;59408;51.032;9.410;2022-12-07T10:24:35;98914.31;;;1.95;100.00
71573;BME280;59408;51.032;9.410;2022-12-07T10:27:02;98906.88;;;2.11;100.00
71573;BME280;59408;51.032;9.410;2022-12-07T10:29:31;98913.81;;;2.17;100.00
71573;BME280;59408;51.032;9.410;2022-12-07T10:32:00;98904.47;;;2.33;100.00
71573;BME280;59408;51.032;9.410;2022-12-07T10:34:28;98905.59;;;2.51;100.00
71573;BME280;59408;51.032;9.410;2022-12-07T10:37:14;98897.81;;;2.68;100.00
71573;BME280;59408;51.032;9.410;2022-12-07T10:39:43;98899.56;;;2.78;100.00
71573;BME280;59408;51.032;9.410;2022-12-07T10:42:17;98899.44;;;2.88;100.00
71573;BME280;59408;51.032;9.410;2022-12-07T10:44:46;98890.19;;;2.94;100.00
71573;BME280;59408;51.032;9.410;2022-12-07T10:47:24;98887.41;;;2.99;98.59
71573;BME280;59408;51.032;9.410;2022-12-07T10:50:31;98894.22;;;3.10;99.07
71573;BME280;59408;51.032;9.410;2022-12-07T10:53:31;98887.75;;;3.11;98.08
71573;BME280;59408;51.032;9.410;2022-12-07T10:56:15;98896.13;;;3.10;98.41
71573;BME280;59408;51.032;9.410;2022-12-07T10:58:55;98884.56;;;3.09;99.55
71573;BME280;59408;51.032;9.410;2022-12-07T11:01:31;98885.66;;;3.08;97.72
71573;BME280;59408;51.032;9.410;2022-12-07T11:04:21;98880.19;;;3.13;98.29
71573;BME280;59408;51.032;9.410;2022-12-07T11:06:57;98872.09;;;3.13;96.95
71573;BME280;59408;51.032;9.410;2022-12-07T11:09:47;98872.19;;;3.08;97.23
71573;BME280;59408;51.032;9.410;2022-12-07T11:12:43;98871.16;;;3.04;95.75
71573;BME280;59408;51.032;9.410;2022-12-07T11:15:17;98870.75;;;2.97;95.66
71573;BME280;59408;51.032;9.410;2022-12-07T11:17:56;98872.53;;;3.02;96.27
71573;BME280;59408;51.032;9.410;2022-12-07T11:20:39;98865.25;;;3.02;93.76
71573;BME280;59408;51.032;9.410;2022-12-07T11:23:16;98868.47;;;3.04;92.32
71573;BME280;59408;51.032;9.410;2022-12-07T11:25:50;98863.97;;;3.00;92.90
71573;BME280;59408;51.032;9.410;2022-12-07T11:28:26;98862.38;;;2.99;94.10
71573;BME280;59408;51.032;9.410;2022-12-07T11:31:05;98853.69;;;3.02;94.04
71573;BME280;59408;51.032;9.410;2022-12-07T11:33:41;98855.38;;;2.98;93.64
71573;BME280;59408;51.032;9.410;2022-12-07T11:36:23;98849.19;;;2.97;92.94
71573;BME280;59408;51.032;9.410;2022-12-07T11:38:58;98862.72;;;2.92;92.12
71573;BME280;59408;51.032;9.410;2022-12-07T11:41:29;98857.34;;;2.92;92.96
71573;BME280;59408;51.032;9.410;2022-12-07T11:44:01;98844.59;;;2.98;92.15
71573;BME280;59408;51.032;9.410;2022-12-07T11:46:43;98852.88;;;3.01;91.77
71573;BME280;59408;51.032;9.410;2022-12-07T11:49:19;98841.81;;;3.03;92.24
71573;BME280;59408;51.032;9.410;2022-12-07T11:51:48;98837.34;;;3.12;93.08
71573;BME280;59408;51.032;9.410;2022-12-07T11:54:19;98833.00;;;3.16;92.58
71573;BME280;59408;51.032;9.410;2022-12-07T11:56:49;98841.59;;;3.18;92.61
71573;BME280;59408;51.032;9.410;2022-12-07T11:59:22;98840.78;;;3.18;94.38
71573;BME280;59408;51.032;9.410;2022-12-07T12:01:53;98844.63;;;3.11;94.26
71573;BME280;59408;51.032;9.410;2022-12-07T12:04:29;98843.22;;;3.00;94.41
71573;BME280;59408;51.032;9.410;2022-12-07T12:06:57;98852.41;;;2.81;95.09
71573;BME280;59408;51.032;9.410;2022-12-07T12:09:29;98846.38;;;2.70;96.90
71573;BME280;59408;51.032;9.410;2022-12-07T12:15:38;98844.63;;;2.42;97.66
71573;BME280;59408;51.032;9.410;2022-12-07T12:18:27;98837.78;;;2.49;99.19
71573;BME280;59408;51.032;9.410;2022-12-07T12:20:58;98835.47;;;2.61;99.61
71573;BME280;59408;51.032;9.410;2022-12-07T12:23:35;98826.44;;;2.71;100.00
71573;BME280;59408;51.032;9.410;2022-12-07T12:26:05;98827.94;;;2.77;99.98
71573;BME280;59408;51.032;9.410;2022-12-07T12:28:38;98828.88;;;2.86;99.90
71573;BME280;59408;51.032;9.410;2022-12-07T12:31:13;98820.94;;;2.95;98.67
71573;BME280;59408;51.032;9.410;2022-12-07T12:33:44;98815.03;;;2.93;97.77
71573;BME280;59408;51.032;9.410;2022-12-07T12:36:25;98811.47;;;2.97;98.14
71573;BME280;59408;51.032;9.410;2022-12-07T12:39:10;98810.00;;;3.05;97.89
71573;BME280;59408;51.032;9.410;2022-12-07T12:42:00;98805.63;;;3.09;96.95
71573;BME280;59408;51.032;9.410;2022-12-07T12:44:40;98810.06;;;3.19;94.98
71573;BME280;59408;51.032;9.410;2022-12-07T12:47:41;98806.91;;;3.11;93.49
71573;BME280;59408;51.032;9.410;2022-12-07T12:50:17;98817.00;;;3.20;95.74
71573;BME280;59408;51.032;9.410;2022-12-07T12:52:56;98818.03;;;3.24;95.45
71573;BME280;59408;51.032;9.410;2022-12-07T12:58:41;98815.84;;;3.26;94.18
71573;BME280;59408;51.032;9.410;2022-12-07T13:01:36;98810.47;;;3.26;93.24
71573;BME280;59408;51.032;9.410;2022-12-07T13:04:17;98807.38;;;3.32;92.91
71573;BME280;59408;51.032;9.410;2022-12-07T13:06:45;98804.91;;;3.36;91.45
71573;BME280;59408;51.032;9.410;2022-12-07T13:09:24;98811.28;;;3.40;89.61
71573;BME280;59408;51.032;9.410;2022-12-07T13:11:58;98801.09;;;3.37;89.14
71573;BME280;59408;51.032;9.410;2022-12-07T13:14:40;98802.56;;;3.29;89.32
71573;BME280;59408;51.032;9.410;2022-12-07T13:17:09;98801.88;;;3.24;88.69
71573;BME280;59408;51.032;9.410;2022-12-07T13:19:57;98796.44;;;3.10;88.19
71573;BME280;59408;51.032;9.410;2022-12-07T13:25:31;98801.63;;;3.06;89.61
71573;BME280;59408;51.032;9.410;2022-12-07T13:28:02;98800.81;;;3.06;89.68
71573;BME280;59408;51.032;9.410;2022-12-07T13:30:44;98803.91;;;2.99;90.79
71573;BME280;59408;51.032;9.410;2022-12-07T13:33:12;98795.03;;;2.99;90.75
71573;BME280;59408;51.032;9.410;2022-12-07T13:35:39;98810.38;;;2.98;91.22